sensor_id;sensor_type;location;lat;lon;timestamp;pressure;altitude;pressure_sealevel;temperature;humidity
76374;BME280;65197;50.164;8.012;2023-02-14T00:01:16;97287.78;;;1.50;100.00
76374;BME280;65197;50.164;8.012;2023-02-14T00:03:42;97294.56;;;1.56;100.00
76374;BME280;65197;50.164;8.012;2023-02-14T00:06:10;97278.53;;;1.47;100.00
76374;BME280;65197;50.164;8.012;2023-02-14T00:08:36;97283.59;;;1.50;100.00
76374;BME280;65197;50.164;8.012;2023-02-14T00:11:02;97290.47;;;1.61;100.00
76374;BME280;65197;50.164;8.012;2023-02-14T00:13:28;97264.19;;;1.40;100.00
76374;BME280;65197;50.164;8.012;2023-02-14T00:15:54;97280.22;;;1.48;100.00
76374;BME280;65197;50.164;8.012;2023-02-14T00:18:19;97298.00;;;1.59;100.00
76374;BME280;65197;50.164;8.012;2023-02-14T00:20:45;97292.00;;;1.52;100.00
76374;BME280;65197;50.164;8.012;2023-02-14T00:23:10;97274.91;;;1.30;100.00
76374;BME280;65197;50.164;8.012;2023-02-14T00:25:35;97276.53;;;1.26;100.00
76374;BME280;65197;50.164;8.012;2023-02-14T00:28:01;97271.44;;;1.22;100.00
76374;BME280;65197;50.164;8.012;2023-02-14T00:30:26;97294.97;;;1.27;100.00
76374;BME280;65197;50.164;8.012;2023-02-14T00:32:52;97293.22;;;1.23;100.00
76374;BME280;65197;50.164;8.012;2023-02-14T00:35:17;97289.72;;;1.15;100.00
76374;BME280;65197;50.164;8.012;2023-02-14T00:37:44;97297.22;;;1.12;100.00
76374;BME280;65197;50.164;8.012;2023-02-14T00:40:11;97270.03;;;0.89;100.00
76374;BME280;65197;50.164;8.012;2023-02-14T00:42:36;97257.34;;;0.83;100.00
76374;BME280;65197;50.164;8.012;2023-02-14T00:45:02;97281.16;;;1.04;100.00
76374;BME280;65197;50.164;8.012;2023-02-14T00:47:27;97285.38;;;1.05;100.00
76374;BME280;65197;50.164;8.012;2023-02-14T00:49:53;97297.00;;;0.99;100.00
76374;BME280;65197;50.164;8.012;2023-02-14T00:52:18;97301.25;;;1.04;100.00
76374;BME280;65197;50.164;8.012;2023-02-14T00:54:44;97287.72;;;0.95;100.00
76374;BME280;65197;50.164;8.012;2023-02-14T00:57:09;97275.06;;;0.91;100.00
76374;BME280;65197;50.164;8.012;2023-02-14T00:59:34;97273.41;;;0.91;100.00
76374;BME280;65197;50.164;8.012;2023-02-14T01:02:00;97287.88;;;1.05;100.00
76374;BME280;65197;50.164;8.012;2023-02-14T01:04:25;97272.56;;;0.89;100.00
76374;BME280;65197;50.164;8.012;2023-02-14T01:06:51;97263.03;;;0.73;100.00
76374;BME280;65197;50.164;8.012;2023-02-14T01:09:16;97297.50;;;0.80;100.00
76374;BME280;65197;50.164;8.012;2023-02-14T01:11:41;97289.50;;;0.56;100.00
76374;BME280;65197;50.164;8.012;2023-02-14T01:14:07;97301.81;;;0.43;100.00
76374;BME280;65197;50.164;8.012;2023-02-14T01:16:32;97289.84;;;0.30;100.00
76374;BME280;65197;50.164;8.012;2023-02-14T01:18:59;97293.84;;;0.22;100.00
76374;BME280;65197;50.164;8.012;2023-02-14T01:21:32;97289.56;;;0.18;100.00
76374;BME280;65197;50.164;8.012;2023-02-14T01:24:00;97291.13;;;0.11;100.00
76374;BME280;65197;50.164;8.012;2023-02-14T01:26:26;97260.44;;;-0.18;100.00
76374;BME280;65197;50.164;8.012;2023-02-14T01:28:52;97283.22;;;-0.06;100.00
76374;BME280;65197;50.164;8.012;2023-02-14T01:31:24;97284.06;;;-0.07;100.00
76374;BME280;65197;50.164;8.012;2023-02-14T01:33:50;97275.50;;;-0.15;100.00
76374;BME280;65197;50.164;8.012;2023-02-14T01:36:36;97277.31;;;-0.09;100.00
76374;BME280;65197;50.164;8.012;2023-02-14T01:39:05;97280.59;;;-0.12;100.00
76374;BME280;65197;50.164;8.012;2023-02-14T01:41:31;97287.06;;;-0.23;100.00
76374;BME280;65197;50.164;8.012;2023-02-14T01:44:04;97299.31;;;-0.34;100.00
76374;BME280;65197;50.164;8.012;2023-02-14T01:46:35;97297.56;;;-0.38;100.00
76374;BME280;65197;50.164;8.012;2023-02-14T01:49:08;97254.16;;;-0.73;100.00
76374;BME280;65197;50.164;8.012;2023-02-14T01:51:39;97263.25;;;-0.77;100.00
76374;BME280;65197;50.164;8.012;2023-02-14T01:54:07;97284.28;;;-0.35;100.00
76374;BME280;65197;50.164;8.012;2023-02-14T01:56:37;97282.25;;;-0.14;100.00
76374;BME280;65197;50.164;8.012;2023-02-14T01:59:07;97298.66;;;0.11;100.00
76374;BME280;65197;50.164;8.012;2023-02-14T02:01:34;97267.03;;;-0.20;100.00
76374;BME280;65197;50.164;8.012;2023-02-14T02:04:09;97287.09;;;-0.20;100.00
76374;BME280;65197;50.164;8.012;2023-02-14T02:06:41;97282.03;;;-0.23;100.00
76374;BME280;65197;50.164;8.012;2023-02-14T02:09:21;97272.59;;;-0.33;100.00
76374;BME280;65197;50.164;8.012;2023-02-14T02:11:49;97282.88;;;-0.22;100.00
76374;BME280;65197;50.164;8.012;2023-02-14T02:14:18;97258.25;;;-0.40;100.00
76374;BME280;65197;50.164;8.012;2023-02-14T02:47:11;97248.78;;;-0.88;100.00
76374;BME280;65197;50.164;8.012;2023-02-14T02:58:16;97213.13;;;-1.13;100.00
76374;BME280;65197;50.164;8.012;2023-02-14T03:00:42;97263.97;;;-0.82;100.00
76374;BME280;65197;50.164;8.012;2023-02-14T03:03:08;97236.81;;;-1.01;100.00
76374;BME280;65197;50.164;8.012;2023-02-14T03:05:53;97255.63;;;-0.81;100.00
76374;BME280;65197;50.164;8.012;2023-02-14T03:08:19;97247.38;;;-0.77;100.00
76374;BME280;65197;50.164;8.012;2023-02-14T03:10:44;97248.44;;;-0.67;100.00
76374;BME280;65197;50.164;8.012;2023-02-14T03:18:31;97257.47;;;-0.38;100.00
76374;BME280;65197;50.164;8.012;2023-02-14T03:26:48;97251.38;;;-0.10;100.00
76374;BME280;65197;50.164;8.012;2023-02-14T03:29:26;97257.09;;;-0.17;100.00
76374;BME280;65197;50.164;8.012;2023-02-14T03:37:47;97238.91;;;-0.07;100.00
76374;BME280;65197;50.164;8.012;2023-02-14T03:40:23;97260.75;;;-0.03;100.00
76374;BME280;65197;50.164;8.012;2023-02-14T03:43:13;97259.25;;;0.06;100.00
76374;BME280;65197;50.164;8.012;2023-02-14T03:45:48;97264.00;;;-0.05;100.00
76374;BME280;65197;50.164;8.012;2023-02-14T03:48:17;97268.94;;;-0.10;100.00
76374;BME280;65197;50.164;8.012;2023-02-14T03:50:46;97249.66;;;-0.12;100.00
76374;BME280;65197;50.164;8.012;2023-02-14T03:53:16;97252.94;;;-0.16;100.00
76374;BME280;65197;50.164;8.012;2023-02-14T03:55:48;97252.09;;;-0.17;100.00
76374;BME280;65197;50.164;8.012;2023-02-14T03:58:23;97254.50;;;-0.21;100.00
76374;BME280;65197;50.164;8.012;2023-02-14T04:00:51;97253.50;;;-0.28;100.00
76374;BME280;65197;50.164;8.012;2023-02-14T04:03:22;97205.16;;;-0.62;100.00
76374;BME280;65197;50.164;8.012;2023-02-14T04:05:49;97247.34;;;-0.42;100.00
76374;BME280;65197;50.164;8.012;2023-02-14T04:08:26;97259.66;;;-0.52;100.00
76374;BME280;65197;50.164;8.012;2023-02-14T04:10:53;97246.88;;;-0.64;100.00
76374;BME280;65197;50.164;8.012;2023-02-14T04:13:20;97246.44;;;-0.46;100.00
76374;BME280;65197;50.164;8.012;2023-02-14T04:15:45;97252.63;;;-0.30;100.00
76374;BME280;65197;50.164;8.012;2023-02-14T04:18:11;97252.81;;;-0.22;100.00
76374;BME280;65197;50.164;8.012;2023-02-14T04:20:55;97214.72;;;-0.45;100.00
76374;BME280;65197;50.164;8.012;2023-02-14T04:23:20;97237.50;;;-0.35;100.00
76374;BME280;65197;50.164;8.012;2023-02-14T04:25:46;97210.59;;;-0.42;100.00
76374;BME280;65197;50.164;8.012;2023-02-14T04:28:12;97261.38;;;-0.13;100.00
76374;BME280;65197;50.164;8.012;2023-02-14T04:30:37;97241.97;;;-0.21;100.00
76374;BME280;65197;50.164;8.012;2023-02-14T04:33:03;97237.16;;;-0.11;100.00
76374;BME280;65197;50.164;8.012;2023-02-14T04:35:29;97247.44;;;0.02;100.00
76374;BME280;65197;50.164;8.012;2023-02-14T04:37:54;97225.44;;;-0.12;100.00
76374;BME280;65197;50.164;8.012;2023-02-14T04:40:20;97248.28;;;0.02;100.00
76374;BME280;65197;50.164;8.012;2023-02-14T04:42:46;97254.09;;;-0.01;100.00
76374;BME280;65197;50.164;8.012;2023-02-14T04:45:12;97258.25;;;-0.01;100.00
76374;BME280;65197;50.164;8.012;2023-02-14T04:47:37;97253.22;;;-0.03;100.00
76374;BME280;65197;50.164;8.012;2023-02-14T04:50:04;97246.13;;;-0.22;100.00
76374;BME280;65197;50.164;8.012;2023-02-14T04:52:29;97232.19;;;-0.47;100.00
76374;BME280;65197;50.164;8.012;2023-02-14T04:54:55;97257.13;;;-0.53;100.00
76374;BME280;65197;50.164;8.012;2023-02-14T04:57:20;97245.75;;;-0.75;100.00
76374;BME280;65197;50.164;8.012;2023-02-14T04:59:46;97250.72;;;-0.78;100.00
76374;BME280;65197;50.164;8.012;2023-02-14T05:02:11;97225.16;;;-0.99;100.00
76374;BME280;65197;50.164;8.012;2023-02-14T05:04:36;97221.59;;;-1.08;100.00
76374;BME280;65197;50.164;8.012;2023-02-14T05:07:02;97254.50;;;-0.94;100.00
76374;BME280;65197;50.164;8.012;2023-02-14T05:09:27;97243.38;;;-1.05;100.00
76374;BME280;65197;50.164;8.012;2023-02-14T05:11:53;97219.94;;;-1.07;100.00
76374;BME280;65197;50.164;8.012;2023-02-14T05:14:18;97241.72;;;-1.05;100.00
76374;BME280;65197;50.164;8.012;2023-02-14T05:16:44;97242.66;;;-1.01;100.00
76374;BME280;65197;50.164;8.012;2023-02-14T05:19:09;97246.59;;;-1.11;100.00
76374;BME280;65197;50.164;8.012;2023-02-14T05:21:35;97221.25;;;-1.23;100.00
76374;BME280;65197;50.164;8.012;2023-02-14T05:24:00;97209.47;;;-1.27;100.00
76374;BME280;65197;50.164;8.012;2023-02-14T05:26:26;97217.16;;;-1.19;100.00
76374;BME280;65197;50.164;8.012;2023-02-14T05:28:51;97211.25;;;-1.21;100.00
76374;BME280;65197;50.164;8.012;2023-02-14T05:31:17;97234.22;;;-1.03;100.00
76374;BME280;65197;50.164;8.012;2023-02-14T05:33:42;97240.09;;;-1.03;100.00
76374;BME280;65197;50.164;8.012;2023-02-14T05:36:09;97198.50;;;-1.31;100.00
76374;BME280;65197;50.164;8.012;2023-02-14T05:38:34;97236.63;;;-1.08;100.00
76374;BME280;65197;50.164;8.012;2023-02-14T05:41:00;97209.47;;;-1.27;100.00
76374;BME280;65197;50.164;8.012;2023-02-14T05:43:25;97221.31;;;-1.20;100.00
76374;BME280;65197;50.164;8.012;2023-02-14T05:45:51;97201.94;;;-1.27;100.00
76374;BME280;65197;50.164;8.012;2023-02-14T05:48:18;97239.44;;;-0.95;100.00
76374;BME280;65197;50.164;8.012;2023-02-14T05:50:43;97232.66;;;-0.99;100.00
76374;BME280;65197;50.164;8.012;2023-02-14T05:53:10;97228.53;;;-0.97;100.00
76374;BME280;65197;50.164;8.012;2023-02-14T05:55:35;97230.25;;;-0.96;100.00
76374;BME280;65197;50.164;8.012;2023-02-14T05:58:01;97220.91;;;-1.02;100.00
76374;BME280;65197;50.164;8.012;2023-02-14T06:00:27;97211.69;;;-1.05;100.00
76374;BME280;65197;50.164;8.012;2023-02-14T06:02:52;97235.31;;;-0.93;100.00
76374;BME280;65197;50.164;8.012;2023-02-14T06:05:18;97215.00;;;-1.06;100.00
76374;BME280;65197;50.164;8.012;2023-02-14T06:07:44;97229.22;;;-1.03;100.00
76374;BME280;65197;50.164;8.012;2023-02-14T06:10:19;97213.13;;;-1.13;100.00
76374;BME280;65197;50.164;8.012;2023-02-14T06:12:45;97221.59;;;-1.08;100.00
76374;BME280;65197;50.164;8.012;2023-02-14T06:15:10;97175.75;;;-1.41;100.00
76374;BME280;65197;50.164;8.012;2023-02-14T06:17:36;97225.56;;;-1.16;100.00
76374;BME280;65197;50.164;8.012;2023-02-14T06:20:02;97206.94;;;-1.29;100.00
76374;BME280;65197;50.164;8.012;2023-02-14T06:22:28;97221.94;;;-1.29;100.00
76374;BME280;65197;50.164;8.012;2023-02-14T06:24:53;97228.03;;;-1.19;100.00
76374;BME280;65197;50.164;8.012;2023-02-14T06:27:18;97220.44;;;-1.22;100.00
76374;BME280;65197;50.164;8.012;2023-02-14T06:29:44;97183.88;;;-1.48;100.00
76374;BME280;65197;50.164;8.012;2023-02-14T06:32:09;97225.34;;;-1.25;100.00
76374;BME280;65197;50.164;8.012;2023-02-14T06:34:34;97217.59;;;-1.34;100.00
76374;BME280;65197;50.164;8.012;2023-02-14T06:37:00;97231.09;;;-1.29;100.00
76374;BME280;65197;50.164;8.012;2023-02-14T06:39:25;97240.25;;;-1.30;100.00
76374;BME280;65197;50.164;8.012;2023-02-14T06:41:51;97220.88;;;-1.38;100.00
76374;BME280;65197;50.164;8.012;2023-02-14T06:44:16;97226.78;;;-1.35;100.00
76374;BME280;65197;50.164;8.012;2023-02-14T06:46:42;97198.75;;;-1.55;100.00
76374;BME280;65197;50.164;8.012;2023-02-14T06:49:09;97215.78;;;-1.41;100.00
76374;BME280;65197;50.164;8.012;2023-02-14T06:51:34;97218.16;;;-1.46;100.00
76374;BME280;65197;50.164;8.012;2023-02-14T06:54:00;97227.38;;;-1.43;100.00
76374;BME280;65197;50.164;8.012;2023-02-14T06:56:26;97201.28;;;-1.53;100.00
76374;BME280;65197;50.164;8.012;2023-02-14T06:58:52;97200.19;;;-1.63;100.00
76374;BME280;65197;50.164;8.012;2023-02-14T07:01:17;97241.03;;;-1.32;100.00
76374;BME280;65197;50.164;8.012;2023-02-14T07:03:42;97214.47;;;-1.27;100.00
76374;BME280;65197;50.164;8.012;2023-02-14T07:06:08;97226.69;;;-1.05;100.00
76374;BME280;65197;50.164;8.012;2023-02-14T07:08:33;97206.88;;;-0.95;100.00
76374;BME280;65197;50.164;8.012;2023-02-14T07:10:59;97204.31;;;-0.61;100.00
76374;BME280;65197;50.164;8.012;2023-02-14T07:13:24;97230.72;;;0.01;100.00
76374;BME280;65197;50.164;8.012;2023-02-14T07:15:50;97221.09;;;0.22;100.00
76374;BME280;65197;50.164;8.012;2023-02-14T07:18:15;97207.47;;;0.53;100.00
76374;BME280;65197;50.164;8.012;2023-02-14T07:20:41;97221.72;;;1.04;100.00
76374;BME280;65197;50.164;8.012;2023-02-14T07:23:06;97195.00;;;1.11;100.00
76374;BME280;65197;50.164;8.012;2023-02-14T07:25:31;97211.41;;;1.40;100.00
76374;BME280;65197;50.164;8.012;2023-02-14T07:27:57;97198.97;;;1.51;100.00
76374;BME280;65197;50.164;8.012;2023-02-14T07:30:23;97203.41;;;1.69;100.00
76374;BME280;65197;50.164;8.012;2023-02-14T07:32:49;97203.47;;;1.75;100.00
76374;BME280;65197;50.164;8.012;2023-02-14T07:35:14;97173.31;;;0.63;100.00
76374;BME280;65197;50.164;8.012;2023-02-14T07:37:39;97211.75;;;0.59;100.00
76374;BME280;65197;50.164;8.012;2023-02-14T07:40:05;97208.56;;;0.22;100.00
76374;BME280;65197;50.164;8.012;2023-02-14T07:42:31;97205.66;;;0.01;100.00
76374;BME280;65197;50.164;8.012;2023-02-14T07:44:56;97227.66;;;0.15;100.00
76374;BME280;65197;50.164;8.012;2023-02-14T07:47:21;97215.03;;;-0.30;100.00
76374;BME280;65197;50.164;8.012;2023-02-14T07:49:49;97197.34;;;-0.74;100.00
76374;BME280;65197;50.164;8.012;2023-02-14T07:52:14;97232.50;;;-0.71;100.00
76374;BME280;65197;50.164;8.012;2023-02-14T07:54:40;97235.53;;;-0.84;100.00
76374;BME280;65197;50.164;8.012;2023-02-14T07:57:05;97223.72;;;-0.88;100.00
76374;BME280;65197;50.164;8.012;2023-02-14T07:59:30;97216.22;;;-0.88;100.00
76374;BME280;65197;50.164;8.012;2023-02-14T08:01:56;97236.53;;;-0.78;100.00
76374;BME280;65197;50.164;8.012;2023-02-14T08:04:21;97210.69;;;-0.75;100.00
76374;BME280;65197;50.164;8.012;2023-02-14T08:06:50;97241.03;;;-0.63;100.00
76374;BME280;65197;50.164;8.012;2023-02-14T08:09:16;97222.44;;;-0.72;100.00
76374;BME280;65197;50.164;8.012;2023-02-14T08:11:52;97235.41;;;-0.54;100.00
76374;BME280;65197;50.164;8.012;2023-02-14T08:14:37;97216.81;;;-0.64;100.00
76374;BME280;65197;50.164;8.012;2023-02-14T08:17:03;97219.38;;;-0.61;100.00
76374;BME280;65197;50.164;8.012;2023-02-14T08:19:29;97183.84;;;-0.82;100.00
76374;BME280;65197;50.164;8.012;2023-02-14T08:21:55;97205.47;;;-0.84;100.00
76374;BME280;65197;50.164;8.012;2023-02-14T08:24:20;97241.25;;;-0.54;100.00
76374;BME280;65197;50.164;8.012;2023-02-14T08:26:45;97219.31;;;-0.64;100.00
76374;BME280;65197;50.164;8.012;2023-02-14T08:29:11;97196.13;;;-0.91;100.00
76374;BME280;65197;50.164;8.012;2023-02-14T08:31:36;97207.94;;;-0.87;100.00
76374;BME280;65197;50.164;8.012;2023-02-14T08:34:05;97212.81;;;-0.92;100.00
76374;BME280;65197;50.164;8.012;2023-02-14T08:36:31;97196.88;;;-0.95;100.00
76374;BME280;65197;50.164;8.012;2023-02-14T08:38:56;97199.19;;;-1.03;100.00
76374;BME280;65197;50.164;8.012;2023-02-14T08:41:22;97208.66;;;-0.91;100.00
76374;BME280;65197;50.164;8.012;2023-02-14T08:43:48;97225.59;;;-0.81;100.00
76374;BME280;65197;50.164;8.012;2023-02-14T08:46:14;97227.25;;;-0.82;100.00
76374;BME280;65197;50.164;8.012;2023-02-14T08:48:41;97220.78;;;-0.72;100.00
76374;BME280;65197;50.164;8.012;2023-02-14T08:51:08;97176.63;;;-1.05;100.00
76374;BME280;65197;50.164;8.012;2023-02-14T08:53:34;97222.69;;;-0.62;100.00
76374;BME280;65197;50.164;8.012;2023-02-14T08:56:08;97214.44;;;-0.58;100.00
76374;BME280;65197;50.164;8.012;2023-02-14T08:58:34;97214.44;;;-0.58;100.00
76374;BME280;65197;50.164;8.012;2023-02-14T09:01:10;97209.72;;;-0.44;100.00
76374;BME280;65197;50.164;8.012;2023-02-14T09:03:35;97227.81;;;-0.56;100.00
76374;BME280;65197;50.164;8.012;2023-02-14T09:06:06;97234.00;;;-0.41;100.00
76374;BME280;65197;50.164;8.012;2023-02-14T09:08:32;97238.06;;;-0.46;100.00
76374;BME280;65197;50.164;8.012;2023-02-14T09:11:05;97227.25;;;-0.44;100.00
76374;BME280;65197;50.164;8.012;2023-02-14T09:13:30;97229.13;;;-0.35;100.00
76374;BME280;65197;50.164;8.012;2023-02-14T09:15:55;97224.19;;;-0.32;100.00
76374;BME280;65197;50.164;8.012;2023-02-14T09:18:21;97207.00;;;-0.55;100.00
76374;BME280;65197;50.164;8.012;2023-02-14T09:20:46;97197.56;;;-0.65;100.00
76374;BME280;65197;50.164;8.012;2023-02-14T09:23:11;97202.94;;;-0.49;100.00
76374;BME280;65197;50.164;8.012;2023-02-14T09:25:37;97230.72;;;-0.39;100.00
76374;BME280;65197;50.164;8.012;2023-02-14T09:28:02;97211.41;;;-0.43;100.00
76374;BME280;65197;50.164;8.012;2023-02-14T09:30:28;97229.22;;;-0.31;100.00
76374;BME280;65197;50.164;8.012;2023-02-14T09:32:53;97205.53;;;-0.45;100.00
76374;BME280;65197;50.164;8.012;2023-02-14T09:35:18;97172.84;;;-0.49;100.00
76374;BME280;65197;50.164;8.012;2023-02-14T09:38:03;97224.25;;;0.12;100.00
76374;BME280;65197;50.164;8.012;2023-02-14T09:40:31;97225.19;;;0.61;100.00
76374;BME280;65197;50.164;8.012;2023-02-14T09:43:10;97222.91;;;0.29;100.00
76374;BME280;65197;50.164;8.012;2023-02-14T09:45:41;97195.31;;;0.76;100.00
76374;BME280;65197;50.164;8.012;2023-02-14T09:50:49;97223.22;;;1.47;100.00
76374;BME280;65197;50.164;8.012;2023-02-14T09:53:27;97225.84;;;1.55;100.00
76374;BME280;65197;50.164;8.012;2023-02-14T10:04:24;97203.28;;;3.16;96.56
76374;BME280;65197;50.164;8.012;2023-02-14T10:09:56;97207.97;;;3.97;90.74
76374;BME280;65197;50.164;8.012;2023-02-14T10:12:32;97178.56;;;4.03;89.22
76374;BME280;65197;50.164;8.012;2023-02-14T10:15:01;97201.13;;;3.73;89.44
76374;BME280;65197;50.164;8.012;2023-02-14T10:17:39;97208.72;;;3.73;89.78
76374;BME280;65197;50.164;8.012;2023-02-14T10:20:20;97188.34;;;3.39;91.45
76374;BME280;65197;50.164;8.012;2023-02-14T10:23:25;97206.19;;;3.71;90.29
76374;BME280;65197;50.164;8.012;2023-02-14T10:25:57;97217.06;;;3.63;87.63
76374;BME280;65197;50.164;8.012;2023-02-14T10:28:32;97214.91;;;3.00;91.11
76374;BME280;65197;50.164;8.012;2023-02-14T10:31:17;97215.75;;;2.99;92.11
76374;BME280;65197;50.164;8.012;2023-02-14T10:33:52;97213.97;;;4.14;88.42
76374;BME280;65197;50.164;8.012;2023-02-14T10:38:53;97197.31;;;5.46;80.63
76374;BME280;65197;50.164;8.012;2023-02-14T10:41:36;97209.03;;;5.96;75.76
76374;BME280;65197;50.164;8.012;2023-02-14T10:44:20;97155.63;;;6.44;74.09
76374;BME280;65197;50.164;8.012;2023-02-14T10:49:44;97192.03;;;7.47;70.22
76374;BME280;65197;50.164;8.012;2023-02-14T10:52:26;97179.69;;;7.94;68.41
76374;BME280;65197;50.164;8.012;2023-02-14T10:57:47;97169.59;;;7.89;68.71
76374;BME280;65197;50.164;8.012;2023-02-14T11:02:45;97152.78;;;8.48;63.78
76374;BME280;65197;50.164;8.012;2023-02-14T11:07:47;97158.34;;;8.73;63.93
76374;BME280;65197;50.164;8.012;2023-02-14T11:10:13;97154.47;;;9.05;61.65
76374;BME280;65197;50.164;8.012;2023-02-14T11:12:40;97166.00;;;9.27;60.40
76374;BME280;65197;50.164;8.012;2023-02-14T11:17:45;97159.13;;;9.32;61.64
76374;BME280;65197;50.164;8.012;2023-02-14T11:22:49;97138.59;;;8.92;61.07
76374;BME280;65197;50.164;8.012;2023-02-14T11:25:25;97161.13;;;9.13;62.38
76374;BME280;65197;50.164;8.012;2023-02-14T11:28:00;97159.28;;;9.71;61.46
76374;BME280;65197;50.164;8.012;2023-02-14T11:30:32;97132.09;;;10.55;55.58
76374;BME280;65197;50.164;8.012;2023-02-14T11:32:58;97142.94;;;10.25;56.50
76374;BME280;65197;50.164;8.012;2023-02-14T11:35:26;97133.88;;;10.10;56.92
76374;BME280;65197;50.164;8.012;2023-02-14T11:37:58;97133.25;;;9.57;58.45
76374;BME280;65197;50.164;8.012;2023-02-14T11:42:57;97142.22;;;10.18;59.87
76374;BME280;65197;50.164;8.012;2023-02-14T11:50:37;97139.09;;;9.60;61.77
76374;BME280;65197;50.164;8.012;2023-02-14T11:53:03;97118.50;;;9.26;62.08
76374;BME280;65197;50.164;8.012;2023-02-14T11:55:31;97123.06;;;9.07;62.66
76374;BME280;65197;50.164;8.012;2023-02-14T11:58:02;97124.84;;;9.02;63.06
76374;BME280;65197;50.164;8.012;2023-02-14T12:00:29;97110.78;;;9.31;61.15
76374;BME280;65197;50.164;8.012;2023-02-14T12:02:57;97089.47;;;9.80;59.86
76374;BME280;65197;50.164;8.012;2023-02-14T12:05:44;97116.97;;;9.64;62.18
76374;BME280;65197;50.164;8.012;2023-02-14T12:08:12;97100.47;;;10.24;58.85
76374;BME280;65197;50.164;8.012;2023-02-14T12:10:38;97110.94;;;9.22;61.56
76374;BME280;65197;50.164;8.012;2023-02-14T12:18:22;97101.84;;;10.40;59.12
76374;BME280;65197;50.164;8.012;2023-02-14T12:23:29;97106.34;;;8.91;64.00
76374;BME280;65197;50.164;8.012;2023-02-14T12:26:02;97104.31;;;8.60;66.69
76374;BME280;65197;50.164;8.012;2023-02-14T12:28:36;97093.03;;;8.77;66.32
76374;BME280;65197;50.164;8.012;2023-02-14T12:31:08;97094.09;;;9.61;62.53
76374;BME280;65197;50.164;8.012;2023-02-14T12:33:35;97089.00;;;9.14;63.54
76374;BME280;65197;50.164;8.012;2023-02-14T12:36:08;97083.13;;;9.57;63.13
76374;BME280;65197;50.164;8.012;2023-02-14T12:44:35;97081.75;;;8.93;66.03
76374;BME280;65197;50.164;8.012;2023-02-14T12:47:34;97080.34;;;8.75;66.11
76374;BME280;65197;50.164;8.012;2023-02-14T12:53:15;97071.47;;;8.99;63.67
76374;BME280;65197;50.164;8.012;2023-02-14T13:04:59;97067.16;;;8.50;66.47
76374;BME280;65197;50.164;8.012;2023-02-14T13:07:35;97062.66;;;8.67;66.24
76374;BME280;65197;50.164;8.012;2023-02-14T13:12:58;97056.47;;;8.28;67.44
76374;BME280;65197;50.164;8.012;2023-02-14T13:25:56;97046.66;;;8.02;67.11
76374;BME280;65197;50.164;8.012;2023-02-14T13:28:23;97046.09;;;7.80;68.88
76374;BME280;65197;50.164;8.012;2023-02-14T13:30:49;97048.19;;;7.49;70.31
76374;BME280;65197;50.164;8.012;2023-02-14T13:33:31;97046.75;;;7.25;71.53
76374;BME280;65197;50.164;8.012;2023-02-14T13:36:02;97018.50;;;7.53;70.66
76374;BME280;65197;50.164;8.012;2023-02-14T13:38:29;97015.91;;;7.57;70.17
76374;BME280;65197;50.164;8.012;2023-02-14T13:40:56;97013.66;;;7.34;69.05
76374;BME280;65197;50.164;8.012;2023-02-14T13:43:45;97036.34;;;6.67;71.59
76374;BME280;65197;50.164;8.012;2023-02-14T13:46:12;97014.63;;;6.35;74.02
76374;BME280;65197;50.164;8.012;2023-02-14T13:48:39;97020.69;;;6.16;74.56
76374;BME280;65197;50.164;8.012;2023-02-14T13:51:06;97009.63;;;6.26;73.37
76374;BME280;65197;50.164;8.012;2023-02-14T13:53:41;97026.69;;;6.02;75.71
76374;BME280;65197;50.164;8.012;2023-02-14T13:58:52;97013.47;;;5.36;77.23
76374;BME280;65197;50.164;8.012;2023-02-14T14:04:31;97027.09;;;4.95;79.59
76374;BME280;65197;50.164;8.012;2023-02-14T14:17:36;97027.16;;;4.31;83.79
76374;BME280;65197;50.164;8.012;2023-02-14T14:22:47;97002.75;;;4.34;83.27
76374;BME280;65197;50.164;8.012;2023-02-14T14:25:32;97025.44;;;4.48;83.23
76374;BME280;65197;50.164;8.012;2023-02-14T14:27:59;97021.25;;;4.24;83.74
76374;BME280;65197;50.164;8.012;2023-02-14T14:30:28;97001.06;;;4.23;84.58
76374;BME280;65197;50.164;8.012;2023-02-14T14:33:14;96971.59;;;4.03;84.60
76374;BME280;65197;50.164;8.012;2023-02-14T14:35:53;97004.41;;;4.16;84.71
76374;BME280;65197;50.164;8.012;2023-02-14T14:38:19;96989.28;;;4.13;85.42
76374;BME280;65197;50.164;8.012;2023-02-14T14:40:46;96982.53;;;3.98;85.23
76374;BME280;65197;50.164;8.012;2023-02-14T14:43:15;97011.16;;;4.23;85.31
76374;BME280;65197;50.164;8.012;2023-02-14T14:45:46;96996.84;;;4.16;84.90
76374;BME280;65197;50.164;8.012;2023-02-14T14:48:17;96996.84;;;4.09;84.15
76374;BME280;65197;50.164;8.012;2023-02-14T14:50:45;97006.09;;;4.04;85.89
76374;BME280;65197;50.164;8.012;2023-02-14T14:53:23;97006.94;;;4.03;84.47
76374;BME280;65197;50.164;8.012;2023-02-14T14:55:50;97009.44;;;3.94;85.18
76374;BME280;65197;50.164;8.012;2023-02-14T14:58:35;96990.06;;;3.78;85.37
76374;BME280;65197;50.164;8.012;2023-02-14T15:01:03;97005.19;;;3.78;85.77
76374;BME280;65197;50.164;8.012;2023-02-14T15:03:28;96996.78;;;3.67;85.07
76374;BME280;65197;50.164;8.012;2023-02-14T15:06:04;96986.69;;;3.61;85.27
76374;BME280;65197;50.164;8.012;2023-02-14T15:08:30;96998.44;;;3.58;85.64
76374;BME280;65197;50.164;8.012;2023-02-14T15:13:33;97001.75;;;3.45;87.05
76374;BME280;65197;50.164;8.012;2023-02-14T15:16:31;96987.44;;;3.35;87.47
76374;BME280;65197;50.164;8.012;2023-02-14T15:19:11;96976.44;;;3.15;88.41
76374;BME280;65197;50.164;8.012;2023-02-14T15:21:41;96999.13;;;3.22;88.40
76374;BME280;65197;50.164;8.012;2023-02-14T15:24:12;96972.97;;;2.94;89.26
76374;BME280;65197;50.164;8.012;2023-02-14T15:26:42;96985.56;;;2.93;89.17
76374;BME280;65197;50.164;8.012;2023-02-14T15:29:23;96988.03;;;2.84;89.67
76374;BME280;65197;50.164;8.012;2023-02-14T15:31:49;96976.16;;;2.60;90.73
76374;BME280;65197;50.164;8.012;2023-02-14T15:34:18;96998.84;;;2.66;91.05
76374;BME280;65197;50.164;8.012;2023-02-14T15:36:44;96995.44;;;2.58;91.21
76374;BME280;65197;50.164;8.012;2023-02-14T15:39:14;96978.59;;;2.47;92.15
76374;BME280;65197;50.164;8.012;2023-02-14T15:41:44;96990.34;;;2.45;92.23
76374;BME280;65197;50.164;8.012;2023-02-14T15:44:21;96948.91;;;2.07;93.12